Super Jet — IINO — position and weather

sailwx.info

Track history (hours):
 
Tides and Currents Weather Stations Pressure Air Temp Water Temp Dewpoint Dewpoint Depression Visibility Wind Speed Wind Dir Waves Ship Positions

Super Jet

Last reported at 2016-Aug-24 21:05 UTC. Time now 2016-Aug-26 04:58 UTC.
Position N 40°38' E 014°23'.

Length 30 m; draft 1.4 m.

Type: High speed craft. MMSI: 247540000.

Date/timePositionNaut miles runAvg speedWind from/ knotsBaromVisibWave heightAir tempDewpointWater temp
2016-Aug-24 21:05N 40°38' E 014°23'0 0.0
2016-Aug-24 20:34N 40°38' E 014°23'0 0.0
2016-Aug-24 19:34N 40°38' E 014°23'0 0.0
2016-Aug-24 18:34N 40°38' E 014°23'0 0.0
2016-Aug-24 17:33N 40°38' E 014°23'1212.2
2016-Aug-24 16:34N 40°49' E 014°17'6 6.2
2016-Aug-24 15:34N 40°43' E 014°16'10 9.7
2016-Aug-24 14:34N 40°33' E 014°14'17 8.1
2016-Aug-24 12:29N 40°50' E 014°15'1718.1
2016-Aug-24 11:33N 40°33' E 014°14'0 0.0
2016-Aug-24 10:33N 40°33' E 014°14'0 0.0
2016-Aug-24 09:34N 40°33' E 014°14'1715.2
2016-Aug-24 08:28N 40°50' E 014°16'1718.5
2016-Aug-24 07:33N 40°33' E 014°14'8 2.5
2016-Aug-24 04:32N 40°38' E 014°23'0 0.0
2016-Aug-24 03:33N 40°38' E 014°23'0 0.0
2016-Aug-24 02:33N 40°38' E 014°23'0 0.0
2016-Aug-24 01:33N 40°38' E 014°23'0 0.0
2016-Aug-24 00:33N 40°38' E 014°23'0 0.0
2016-Aug-23 23:33N 40°38' E 014°23'0 0.0
2016-Aug-23 22:33N 40°38' E 014°23'0 0.0
2016-Aug-23 21:33N 40°38' E 014°23'0 0.0
2016-Aug-23 20:33N 40°38' E 014°23'0 0.0
2016-Aug-23 19:33N 40°38' E 014°23'0 0.0
2016-Aug-23 18:33N 40°38' E 014°23'0 0.0
2016-Aug-23 17:33N 40°38' E 014°23'1312.9
2016-Aug-23 16:33N 40°50' E 014°17'8 7.6
2016-Aug-23 15:34N 40°42' E 014°17'9 9.0
2016-Aug-23 14:33N 40°34' E 014°15'17 8.3
2016-Aug-23 12:33N 40°50' E 014°16'1716.6
2016-Aug-23 11:33N 40°33' E 014°14'0 0.0
2016-Aug-23 10:33N 40°33' E 014°14'17 7.9
2016-Aug-23 08:26N 40°50' E 014°16'1719.0
2016-Aug-23 07:33N 40°33' E 014°14'10 5.2
2016-Aug-23 05:34N 40°43' E 014°21'5 5.1
2016-Aug-23 04:33N 40°38' E 014°23'0 0.0
2016-Aug-23 03:33N 40°38' E 014°23'0 0.0
2016-Aug-23 02:33N 40°38' E 014°23'0 0.0
2016-Aug-23 01:33N 40°38' E 014°23'0 0.0
2016-Aug-23 00:33N 40°38' E 014°23'0 0.0
2016-Aug-22 23:33N 40°38' E 014°23'0 0.0
2016-Aug-22 22:33N 40°38' E 014°23'0 0.0
2016-Aug-22 21:33N 40°38' E 014°23'0 0.0
2016-Aug-22 20:33N 40°38' E 014°23'0 0.0
2016-Aug-22 19:33N 40°38' E 014°23'0 0.0
2016-Aug-22 18:33N 40°38' E 014°23'0 0.0
2016-Aug-22 17:33N 40°38' E 014°23'1312.7
2016-Aug-22 16:34N 40°50' E 014°17'6 5.9
2016-Aug-22 15:33N 40°44' E 014°17'1010.5
2016-Aug-22 14:33N 40°33' E 014°14'17 8.0
2016-Aug-22 12:28N 40°50' E 014°16'1718.3
2016-Aug-22 11:33N 40°33' E 014°14'0 0.1
2016-Aug-22 10:31N 40°33' E 014°14'17 8.2
2016-Aug-22 08:28N 40°50' E 014°16'1718.4
2016-Aug-22 07:33N 40°33' E 014°14'10 5.2
2016-Aug-22 05:34N 40°43' E 014°20'5 5.3
2016-Aug-22 04:34N 40°38' E 014°23'0 0.0
2016-Aug-22 03:34N 40°38' E 014°23'0 0.0
2016-Aug-22 02:34N 40°38' E 014°23'0 0.0
2016-Aug-22 01:33N 40°38' E 014°23'0 0.0
2016-Aug-22 00:34N 40°38' E 014°23'0 0.0
2016-Aug-21 23:34N 40°38' E 014°23'0 0.0
2016-Aug-21 22:34N 40°38' E 014°23'0 0.0
2016-Aug-21 21:33N 40°38' E 014°23'0 0.0
2016-Aug-21 20:34N 40°38' E 014°23'0 0.0
2016-Aug-21 19:34N 40°38' E 014°23'0 0.0
2016-Aug-21 18:33N 40°38' E 014°23'0 0.0
2016-Aug-21 17:33N 40°38' E 014°23'1111.3
2016-Aug-21 16:34N 40°48' E 014°17'5 5.1
2016-Aug-21 15:34N 40°43' E 014°16'10 9.8
2016-Aug-21 14:33N 40°34' E 014°15'0 0.3
2016-Aug-21 13:33N 40°33' E 014°14'0 0.2
2016-Aug-21 12:34N 40°33' E 014°15'2 2.1
2016-Aug-21 11:33N 40°35' E 014°13'2 2.1
2016-Aug-21 10:33N 40°33' E 014°14'1713.6
2016-Aug-21 09:19N 40°50' E 014°15'0 0.0
2016-Aug-21 08:33N 40°50' E 014°15'1716.9
2016-Aug-21 07:33N 40°33' E 014°14'1713.8
2016-Aug-21 06:20N 40°50' E 014°15'810.6
2016-Aug-21 05:34N 40°43' E 014°20'5 5.3
2016-Aug-21 04:34N 40°38' E 014°23'0 0.0
2016-Aug-21 03:34N 40°38' E 014°23'0 0.0
2016-Aug-21 02:33N 40°38' E 014°23'0 0.0
2016-Aug-21 01:34N 40°38' E 014°23'0 0.0
2016-Aug-21 00:33N 40°38' E 014°23'0 0.0
2016-Aug-20 23:34N 40°38' E 014°23'0 0.0
2016-Aug-20 22:34N 40°38' E 014°23'0 0.0
2016-Aug-20 21:33N 40°38' E 014°23'0 0.0
2016-Aug-20 20:34N 40°38' E 014°23'0 0.0
2016-Aug-20 19:34N 40°38' E 014°23'0 0.0
2016-Aug-20 18:33N 40°38' E 014°23'0 0.0
2016-Aug-20 17:34N 40°38' E 014°23'1111.3
2016-Aug-20 16:34N 40°48' E 014°17'4 4.5
2016-Aug-20 15:34N 40°44' E 014°17'1110.6
2016-Aug-20 14:33N 40°33' E 014°14'0 0.0
2016-Aug-20 13:33N 40°33' E 014°14'0 0.0
2016-Aug-20 12:33N 40°33' E 014°14'0 0.0
2016-Aug-20 11:33N 40°33' E 014°14'0 0.1
2016-Aug-20 10:33N 40°33' E 014°14'17 8.1
2016-Aug-20 08:28N 40°50' E 014°16'1718.4
2016-Aug-20 07:34N 40°33' E 014°14'10 5.0
2016-Aug-20 05:34N 40°42' E 014°20'5 4.9
2016-Aug-20 04:33N 40°38' E 014°23'0 0.0
2016-Aug-20 03:33N 40°38' E 014°23'0 0.0
2016-Aug-20 02:33N 40°38' E 014°23'0 0.0
2016-Aug-20 01:33N 40°38' E 014°23'0 0.0
2016-Aug-20 00:33N 40°38' E 014°23'0 0.0
2016-Aug-19 23:33N 40°38' E 014°23'0 0.0
2016-Aug-19 22:33N 40°38' E 014°23'0 0.0
2016-Aug-19 21:33N 40°38' E 014°23'0 0.0
2016-Aug-19 20:33N 40°38' E 014°23'0 0.0
2016-Aug-19 19:33N 40°38' E 014°23'0 0.0
2016-Aug-19 18:33N 40°38' E 014°23'0 0.0
2016-Aug-19 17:33N 40°38' E 014°23'1111.4
2016-Aug-19 16:33N 40°48' E 014°17'7 6.6
2016-Aug-19 15:34N 40°42' E 014°17'9 8.6
2016-Aug-19 14:33N 40°33' E 014°15'0 0.1
2016-Aug-19 13:34N 40°33' E 014°14'0 0.0
2016-Aug-19 12:33N 40°33' E 014°14'0 0.0
2016-Aug-19 11:34N 40°33' E 014°14'0 0.1
2016-Aug-19 10:34N 40°33' E 014°14'17 7.9
2016-Aug-19 08:25N 40°50' E 014°16'1719.4
2016-Aug-19 07:33N 40°33' E 014°14'10 5.2
2016-Aug-19 05:34N 40°43' E 014°20'5 5.4
2016-Aug-19 04:33N 40°38' E 014°23'0 0.0
2016-Aug-19 03:33N 40°38' E 014°23'0 0.0
2016-Aug-19 02:33N 40°38' E 014°23'0 0.0
2016-Aug-19 01:33N 40°38' E 014°23'0 0.0
2016-Aug-19 00:33N 40°38' E 014°23'0 0.0
2016-Aug-18 23:33N 40°38' E 014°23'0 0.0
2016-Aug-18 22:33N 40°38' E 014°23'0 0.0
2016-Aug-18 21:33N 40°38' E 014°23'0 0.0
2016-Aug-18 20:33N 40°38' E 014°23'0 0.0
2016-Aug-18 19:33N 40°38' E 014°23'0 0.0
2016-Aug-18 18:33N 40°38' E 014°23'0 0.0
2016-Aug-18 17:33N 40°38' E 014°23'1111.3
2016-Aug-18 16:33N 40°48' E 014°17'5 5.2
2016-Aug-18 15:34N 40°43' E 014°17'10 9.9
2016-Aug-18 14:33N 40°33' E 014°14'17 8.0
2016-Aug-18 12:28N 40°50' E 014°16'1718.6
2016-Aug-18 11:33N 40°33' E 014°14'0 0.0
2016-Aug-18 10:33N 40°33' E 014°14'17 7.9
2016-Aug-18 08:26N 40°50' E 014°16'1719.3
2016-Aug-18 07:34N 40°33' E 014°14'11 5.3
2016-Aug-18 05:34N 40°43' E 014°20'6 5.5
2016-Aug-18 04:33N 40°38' E 014°23'0 0.0
2016-Aug-18 03:34N 40°38' E 014°23'0 0.0
2016-Aug-18 02:34N 40°38' E 014°23'0 0.0
2016-Aug-18 01:34N 40°38' E 014°23'0 0.0
2016-Aug-18 00:33N 40°38' E 014°23'0 0.0
2016-Aug-17 23:34N 40°38' E 014°23'0 0.0
2016-Aug-17 22:34N 40°38' E 014°23'0 0.0
2016-Aug-17 21:34N 40°38' E 014°23'0 0.0
2016-Aug-17 20:34N 40°38' E 014°23'0 0.0
2016-Aug-17 19:34N 40°38' E 014°23'0 0.0
2016-Aug-17 18:34N 40°38' E 014°23'0 0.0
2016-Aug-17 17:34N 40°38' E 014°23'1313.0
2016-Aug-17 16:34N 40°50' E 014°16'7 6.5
2016-Aug-17 15:34N 40°43' E 014°17'1010.1
2016-Aug-17 14:33N 40°33' E 014°14'17 7.8
2016-Aug-17 12:25N 40°50' E 014°16'1719.6
2016-Aug-17 11:33N 40°33' E 014°14'0 0.0
2016-Aug-17 10:33N 40°33' E 014°14'0 0.0
2016-Aug-17 09:33N 40°33' E 014°14'1714.7
2016-Aug-17 08:25N 40°50' E 014°16'1719.6
2016-Aug-17 07:34N 40°33' E 014°14'11 5.3
2016-Aug-17 05:34N 40°43' E 014°20'6 5.5
2016-Aug-17 04:33N 40°38' E 014°23'0 0.0
2016-Aug-17 03:33N 40°38' E 014°23'0 0.0
2016-Aug-17 02:33N 40°38' E 014°23'0 0.0
2016-Aug-17 01:33N 40°38' E 014°23'0 0.0
2016-Aug-17 00:33N 40°38' E 014°23'0 0.0
2016-Aug-16 23:33N 40°38' E 014°23'0 0.0
2016-Aug-16 22:33N 40°38' E 014°23'0 0.0
2016-Aug-16 21:33N 40°38' E 014°23'0 0.0
2016-Aug-16 20:33N 40°38' E 014°23'0 0.0
2016-Aug-16 19:33N 40°38' E 014°23'0 0.0
2016-Aug-16 18:33N 40°38' E 014°23'0 0.0
2016-Aug-16 17:33N 40°38' E 014°23'1211.6
2016-Aug-16 16:34N 40°49' E 014°17'6 6.2
2016-Aug-16 15:34N 40°42' E 014°17'9 8.9
2016-Aug-16 14:33N 40°34' E 014°15'0 0.3
2016-Aug-16 13:34N 40°33' E 014°14'0 0.0
2016-Aug-16 12:33N 40°33' E 014°14'3 2.8
2016-Aug-16 11:34N 40°36' E 014°16'1412.2
2016-Aug-16 10:24N 40°50' E 014°16'1714.2
2016-Aug-16 09:13N 40°33' E 014°14'0 0.0
2016-Aug-16 08:31N 40°33' E 014°14'8 1.9
2016-Aug-16 04:33N 40°38' E 014°23'0 0.0
2016-Aug-16 03:33N 40°38' E 014°23'0 0.0
2016-Aug-16 02:33N 40°38' E 014°23'0 0.0
2016-Aug-16 01:33N 40°38' E 014°23'0 0.0
2016-Aug-16 00:33N 40°38' E 014°23'0 0.0
2016-Aug-15 23:33N 40°38' E 014°23'0 0.0
2016-Aug-15 22:33N 40°38' E 014°23'0 0.0
2016-Aug-15 21:33N 40°38' E 014°23'0 0.0
2016-Aug-15 20:33N 40°38' E 014°23'0 0.0
2016-Aug-15 19:33N 40°38' E 014°23'0 0.0
2016-Aug-15 18:33N 40°38' E 014°23'0 0.0
2016-Aug-15 17:33N 40°38' E 014°23'1211.8
2016-Aug-15 16:34N 40°49' E 014°17'8 8.0
2016-Aug-15 15:34N 40°41' E 014°16'8 7.4
2016-Aug-15 14:33N 40°33' E 014°14'2 2.0
2016-Aug-15 13:26N 40°32' E 014°17'1 0.5
2016-Aug-15 12:15N 40°33' E 014°17'2 2.7
2016-Aug-15 11:33N 40°34' E 014°15'1613.5
2016-Aug-15 10:22N 40°50' E 014°16'1720.8
2016-Aug-15 09:34N 40°33' E 014°14'0 0.0
2016-Aug-15 08:33N 40°33' E 014°14'8 1.9
2016-Aug-15 04:33N 40°38' E 014°23'0 0.0
2016-Aug-15 03:33N 40°38' E 014°23'0 0.0
2016-Aug-15 02:33N 40°38' E 014°23'0 0.0
2016-Aug-15 01:33N 40°38' E 014°23'0 0.0
2016-Aug-15 00:33N 40°38' E 014°23'0 0.0
2016-Aug-14 23:33N 40°38' E 014°23'0 0.0
2016-Aug-14 22:33N 40°38' E 014°23'0 0.0
2016-Aug-14 21:33N 40°38' E 014°23'  
Track history (hours):
 
Tides and Currents Weather Stations Pressure Air Temp Water Temp Dewpoint Dewpoint Depression Visibility Wind Speed Wind Dir Waves Ship Positions

Super Jet

Last reported at 2016-Aug-24 21:05 UTC. Time now 2016-Aug-26 04:58 UTC.
Position N 40°38' E 014°23'.

Length 30 m; draft 1.4 m.

Type: High speed craft. MMSI: 247540000.

Date/timePositionNaut miles runAvg speedWind from/ knotsBaromVisibWave heightAir tempDewpointWater temp
2016-Aug-24 21:05N 40°38' E 014°23'0 0.0
2016-Aug-24 20:34N 40°38' E 014°23'0 0.0
2016-Aug-24 19:34N 40°38' E 014°23'0 0.0
2016-Aug-24 18:34N 40°38' E 014°23'0 0.0
2016-Aug-24 17:33N 40°38' E 014°23'1212.2
2016-Aug-24 16:34N 40°49' E 014°17'6 6.2
2016-Aug-24 15:34N 40°43' E 014°16'10 9.7
2016-Aug-24 14:34N 40°33' E 014°14'17 8.1
2016-Aug-24 12:29N 40°50' E 014°15'1718.1
2016-Aug-24 11:33N 40°33' E 014°14'0 0.0
2016-Aug-24 10:33N 40°33' E 014°14'0 0.0
2016-Aug-24 09:34N 40°33' E 014°14'1715.2
2016-Aug-24 08:28N 40°50' E 014°16'1718.5
2016-Aug-24 07:33N 40°33' E 014°14'8 2.5
2016-Aug-24 04:32N 40°38' E 014°23'0 0.0
2016-Aug-24 03:33N 40°38' E 014°23'0 0.0
2016-Aug-24 02:33N 40°38' E 014°23'0 0.0
2016-Aug-24 01:33N 40°38' E 014°23'0 0.0
2016-Aug-24 00:33N 40°38' E 014°23'0 0.0
2016-Aug-23 23:33N 40°38' E 014°23'0 0.0
2016-Aug-23 22:33N 40°38' E 014°23'0 0.0
2016-Aug-23 21:33N 40°38' E 014°23'0 0.0
2016-Aug-23 20:33N 40°38' E 014°23'0 0.0
2016-Aug-23 19:33N 40°38' E 014°23'0 0.0
2016-Aug-23 18:33N 40°38' E 014°23'0 0.0
2016-Aug-23 17:33N 40°38' E 014°23'1312.9
2016-Aug-23 16:33N 40°50' E 014°17'8 7.6
2016-Aug-23 15:34N 40°42' E 014°17'9 9.0
2016-Aug-23 14:33N 40°34' E 014°15'17 8.3
2016-Aug-23 12:33N 40°50' E 014°16'1716.6
2016-Aug-23 11:33N 40°33' E 014°14'0 0.0
2016-Aug-23 10:33N 40°33' E 014°14'17 7.9
2016-Aug-23 08:26N 40°50' E 014°16'1719.0
2016-Aug-23 07:33N 40°33' E 014°14'10 5.2
2016-Aug-23 05:34N 40°43' E 014°21'5 5.1
2016-Aug-23 04:33N 40°38' E 014°23'0 0.0
2016-Aug-23 03:33N 40°38' E 014°23'0 0.0
2016-Aug-23 02:33N 40°38' E 014°23'0 0.0
2016-Aug-23 01:33N 40°38' E 014°23'0 0.0
2016-Aug-23 00:33N 40°38' E 014°23'0 0.0
2016-Aug-22 23:33N 40°38' E 014°23'0 0.0
2016-Aug-22 22:33N 40°38' E 014°23'0 0.0
2016-Aug-22 21:33N 40°38' E 014°23'0 0.0
2016-Aug-22 20:33N 40°38' E 014°23'0 0.0
2016-Aug-22 19:33N 40°38' E 014°23'0 0.0
2016-Aug-22 18:33N 40°38' E 014°23'0 0.0
2016-Aug-22 17:33N 40°38' E 014°23'1312.7
2016-Aug-22 16:34N 40°50' E 014°17'6 5.9
2016-Aug-22 15:33N 40°44' E 014°17'1010.5
2016-Aug-22 14:33N 40°33' E 014°14'17 8.0
2016-Aug-22 12:28N 40°50' E 014°16'1718.3
2016-Aug-22 11:33N 40°33' E 014°14'0 0.1
2016-Aug-22 10:31N 40°33' E 014°14'17 8.2
2016-Aug-22 08:28N 40°50' E 014°16'1718.4
2016-Aug-22 07:33N 40°33' E 014°14'10 5.2
2016-Aug-22 05:34N 40°43' E 014°20'5 5.3
2016-Aug-22 04:34N 40°38' E 014°23'0 0.0
2016-Aug-22 03:34N 40°38' E 014°23'0 0.0
2016-Aug-22 02:34N 40°38' E 014°23'0 0.0
2016-Aug-22 01:33N 40°38' E 014°23'0 0.0
2016-Aug-22 00:34N 40°38' E 014°23'0 0.0
2016-Aug-21 23:34N 40°38' E 014°23'0 0.0
2016-Aug-21 22:34N 40°38' E 014°23'0 0.0
2016-Aug-21 21:33N 40°38' E 014°23'0 0.0
2016-Aug-21 20:34N 40°38' E 014°23'0 0.0
2016-Aug-21 19:34N 40°38' E 014°23'0 0.0
2016-Aug-21 18:33N 40°38' E 014°23'0 0.0
2016-Aug-21 17:33N 40°38' E 014°23'1111.3
2016-Aug-21 16:34N 40°48' E 014°17'5 5.1
2016-Aug-21 15:34N 40°43' E 014°16'10 9.8
2016-Aug-21 14:33N 40°34' E 014°15'0 0.3
2016-Aug-21 13:33N 40°33' E 014°14'0 0.2
2016-Aug-21 12:34N 40°33' E 014°15'2 2.1
2016-Aug-21 11:33N 40°35' E 014°13'2 2.1
2016-Aug-21 10:33N 40°33' E 014°14'1713.6
2016-Aug-21 09:19N 40°50' E 014°15'0 0.0
2016-Aug-21 08:33N 40°50' E 014°15'1716.9
2016-Aug-21 07:33N 40°33' E 014°14'1713.8
2016-Aug-21 06:20N 40°50' E 014°15'810.6
2016-Aug-21 05:34N 40°43' E 014°20'5 5.3
2016-Aug-21 04:34N 40°38' E 014°23'0 0.0
2016-Aug-21 03:34N 40°38' E 014°23'0 0.0
2016-Aug-21 02:33N 40°38' E 014°23'0 0.0
2016-Aug-21 01:34N 40°38' E 014°23'0 0.0
2016-Aug-21 00:33N 40°38' E 014°23'0 0.0
2016-Aug-20 23:34N 40°38' E 014°23'0 0.0
2016-Aug-20 22:34N 40°38' E 014°23'0 0.0
2016-Aug-20 21:33N 40°38' E 014°23'0 0.0
2016-Aug-20 20:34N 40°38' E 014°23'0 0.0
2016-Aug-20 19:34N 40°38' E 014°23'0 0.0
2016-Aug-20 18:33N 40°38' E 014°23'0 0.0
2016-Aug-20 17:34N 40°38' E 014°23'1111.3
2016-Aug-20 16:34N 40°48' E 014°17'4 4.5
2016-Aug-20 15:34N 40°44' E 014°17'1110.6
2016-Aug-20 14:33N 40°33' E 014°14'0 0.0
2016-Aug-20 13:33N 40°33' E 014°14'0 0.0
2016-Aug-20 12:33N 40°33' E 014°14'0 0.0
2016-Aug-20 11:33N 40°33' E 014°14'0 0.1
2016-Aug-20 10:33N 40°33' E 014°14'17 8.1
2016-Aug-20 08:28N 40°50' E 014°16'1718.4
2016-Aug-20 07:34N 40°33' E 014°14'10 5.0
2016-Aug-20 05:34N 40°42' E 014°20'5 4.9
2016-Aug-20 04:33N 40°38' E 014°23'0 0.0
2016-Aug-20 03:33N 40°38' E 014°23'0 0.0
2016-Aug-20 02:33N 40°38' E 014°23'0 0.0
2016-Aug-20 01:33N 40°38' E 014°23'0 0.0
2016-Aug-20 00:33N 40°38' E 014°23'0 0.0
2016-Aug-19 23:33N 40°38' E 014°23'0 0.0
2016-Aug-19 22:33N 40°38' E 014°23'0 0.0
2016-Aug-19 21:33N 40°38' E 014°23'0 0.0
2016-Aug-19 20:33N 40°38' E 014°23'0 0.0
2016-Aug-19 19:33N 40°38' E 014°23'0 0.0
2016-Aug-19 18:33N 40°38' E 014°23'0 0.0
2016-Aug-19 17:33N 40°38' E 014°23'1111.4
2016-Aug-19 16:33N 40°48' E 014°17'7 6.6
2016-Aug-19 15:34N 40°42' E 014°17'9 8.6
2016-Aug-19 14:33N 40°33' E 014°15'0 0.1
2016-Aug-19 13:34N 40°33' E 014°14'0 0.0
2016-Aug-19 12:33N 40°33' E 014°14'0 0.0
2016-Aug-19 11:34N 40°33' E 014°14'0 0.1
2016-Aug-19 10:34N 40°33' E 014°14'17 7.9
2016-Aug-19 08:25N 40°50' E 014°16'1719.4
2016-Aug-19 07:33N 40°33' E 014°14'10 5.2
2016-Aug-19 05:34N 40°43' E 014°20'5 5.4
2016-Aug-19 04:33N 40°38' E 014°23'0 0.0
2016-Aug-19 03:33N 40°38' E 014°23'0 0.0
2016-Aug-19 02:33N 40°38' E 014°23'0 0.0
2016-Aug-19 01:33N 40°38' E 014°23'0 0.0
2016-Aug-19 00:33N 40°38' E 014°23'0 0.0
2016-Aug-18 23:33N 40°38' E 014°23'0 0.0
2016-Aug-18 22:33N 40°38' E 014°23'0 0.0
2016-Aug-18 21:33N 40°38' E 014°23'0 0.0
2016-Aug-18 20:33N 40°38' E 014°23'0 0.0
2016-Aug-18 19:33N 40°38' E 014°23'0 0.0
2016-Aug-18 18:33N 40°38' E 014°23'0 0.0
2016-Aug-18 17:33N 40°38' E 014°23'1111.3
2016-Aug-18 16:33N 40°48' E 014°17'5 5.2
2016-Aug-18 15:34N 40°43' E 014°17'10 9.9
2016-Aug-18 14:33N 40°33' E 014°14'17 8.0
2016-Aug-18 12:28N 40°50' E 014°16'1718.6
2016-Aug-18 11:33N 40°33' E 014°14'0 0.0
2016-Aug-18 10:33N 40°33' E 014°14'17 7.9
2016-Aug-18 08:26N 40°50' E 014°16'1719.3
2016-Aug-18 07:34N 40°33' E 014°14'11 5.3
2016-Aug-18 05:34N 40°43' E 014°20'6 5.5
2016-Aug-18 04:33N 40°38' E 014°23'0 0.0
2016-Aug-18 03:34N 40°38' E 014°23'0 0.0
2016-Aug-18 02:34N 40°38' E 014°23'0 0.0
2016-Aug-18 01:34N 40°38' E 014°23'0 0.0
2016-Aug-18 00:33N 40°38' E 014°23'0 0.0
2016-Aug-17 23:34N 40°38' E 014°23'0 0.0
2016-Aug-17 22:34N 40°38' E 014°23'0 0.0
2016-Aug-17 21:34N 40°38' E 014°23'0 0.0
2016-Aug-17 20:34N 40°38' E 014°23'0 0.0
2016-Aug-17 19:34N 40°38' E 014°23'0 0.0
2016-Aug-17 18:34N 40°38' E 014°23'0 0.0
2016-Aug-17 17:34N 40°38' E 014°23'1313.0
2016-Aug-17 16:34N 40°50' E 014°16'7 6.5
2016-Aug-17 15:34N 40°43' E 014°17'1010.1
2016-Aug-17 14:33N 40°33' E 014°14'17 7.8
2016-Aug-17 12:25N 40°50' E 014°16'1719.6
2016-Aug-17 11:33N 40°33' E 014°14'0 0.0
2016-Aug-17 10:33N 40°33' E 014°14'0 0.0
2016-Aug-17 09:33N 40°33' E 014°14'1714.7
2016-Aug-17 08:25N 40°50' E 014°16'1719.6
2016-Aug-17 07:34N 40°33' E 014°14'11 5.3
2016-Aug-17 05:34N 40°43' E 014°20'6 5.5
2016-Aug-17 04:33N 40°38' E 014°23'0 0.0
2016-Aug-17 03:33N 40°38' E 014°23'0 0.0
2016-Aug-17 02:33N 40°38' E 014°23'0 0.0
2016-Aug-17 01:33N 40°38' E 014°23'0 0.0
2016-Aug-17 00:33N 40°38' E 014°23'0 0.0
2016-Aug-16 23:33N 40°38' E 014°23'0 0.0
2016-Aug-16 22:33N 40°38' E 014°23'0 0.0
2016-Aug-16 21:33N 40°38' E 014°23'0 0.0
2016-Aug-16 20:33N 40°38' E 014°23'0 0.0
2016-Aug-16 19:33N 40°38' E 014°23'0 0.0
2016-Aug-16 18:33N 40°38' E 014°23'0 0.0
2016-Aug-16 17:33N 40°38' E 014°23'1211.6
2016-Aug-16 16:34N 40°49' E 014°17'6 6.2
2016-Aug-16 15:34N 40°42' E 014°17'9 8.9
2016-Aug-16 14:33N 40°34' E 014°15'0 0.3
2016-Aug-16 13:34N 40°33' E 014°14'0 0.0
2016-Aug-16 12:33N 40°33' E 014°14'3 2.8
2016-Aug-16 11:34N 40°36' E 014°16'1412.2
2016-Aug-16 10:24N 40°50' E 014°16'1714.2
2016-Aug-16 09:13N 40°33' E 014°14'0 0.0
2016-Aug-16 08:31N 40°33' E 014°14'8 1.9
2016-Aug-16 04:33N 40°38' E 014°23'0 0.0
2016-Aug-16 03:33N 40°38' E 014°23'0 0.0
2016-Aug-16 02:33N 40°38' E 014°23'0 0.0
2016-Aug-16 01:33N 40°38' E 014°23'0 0.0
2016-Aug-16 00:33N 40°38' E 014°23'0 0.0
2016-Aug-15 23:33N 40°38' E 014°23'0 0.0
2016-Aug-15 22:33N 40°38' E 014°23'0 0.0
2016-Aug-15 21:33N 40°38' E 014°23'0 0.0
2016-Aug-15 20:33N 40°38' E 014°23'0 0.0
2016-Aug-15 19:33N 40°38' E 014°23'0 0.0
2016-Aug-15 18:33N 40°38' E 014°23'0 0.0
2016-Aug-15 17:33N 40°38' E 014°23'1211.8
2016-Aug-15 16:34N 40°49' E 014°17'8 8.0
2016-Aug-15 15:34N 40°41' E 014°16'8 7.4
2016-Aug-15 14:33N 40°33' E 014°14'2 2.0
2016-Aug-15 13:26N 40°32' E 014°17'1 0.5
2016-Aug-15 12:15N 40°33' E 014°17'2 2.7
2016-Aug-15 11:33N 40°34' E 014°15'1613.5
2016-Aug-15 10:22N 40°50' E 014°16'1720.8
2016-Aug-15 09:34N 40°33' E 014°14'0 0.0
2016-Aug-15 08:33N 40°33' E 014°14'8 1.9
2016-Aug-15 04:33N 40°38' E 014°23'0 0.0
2016-Aug-15 03:33N 40°38' E 014°23'0 0.0
2016-Aug-15 02:33N 40°38' E 014°23'0 0.0
2016-Aug-15 01:33N 40°38' E 014°23'0 0.0
2016-Aug-15 00:33N 40°38' E 014°23'0 0.0
2016-Aug-14 23:33N 40°38' E 014°23'0 0.0
2016-Aug-14 22:33N 40°38' E 014°23'0 0.0
2016-Aug-14 21:33N 40°38' E 014°23'  

Dump ship's entire track history